Ship Status Report: callsign BAREU51

sailwx.info

Track history (hours):
 
Tides and Currents Weather Stations Pressure Air Temp Water Temp Dewpoint Dewpoint Depression Visibility Wind Speed Wind Dir Waves Ship Positions

Callsign BAREU51 (name unknown)

Last reported at 2014-Sep-16 12:00 UTC. Time now 2014-Sep-16 19:33 UTC.
Position N 44°24' E 008°54'.

Barometer 1015.4 mb
Air temperature 23.8 ° C

Date/timePositionNaut miles runAvg speedWind from/ knotsBaromVisibWave heightAir tempDewpointWater temp
2014-Sep-16 12:00N 44°24' E 008°54'1514.8 1015.4 23.8
2014-Sep-16 11:00N 44°12' E 009°06'3131.2 1015.2 23.0
2014-Sep-16 10:00N 43°42' E 009°18'2625.5 1016.1 23.2
2014-Sep-16 09:00N 43°18' E 009°30'3030.3 1021.2 23.4
2014-Sep-16 08:00N 42°48' E 009°36'2424.4 1014.4 21.2
2014-Sep-16 07:00N 42°24' E 009°42'3030.3 1018.7 23.5
2014-Sep-16 06:00N 41°54' E 009°48'2424.4 1015.1 22.3
2014-Sep-16 05:00N 41°30' E 009°54'2424.4 1013.1 22.3
2014-Sep-16 04:00N 41°06' E 010°00'3030.0 1013.5 23.6
2014-Sep-16 03:00N 40°36' E 010°00'2424.4 1013.8 23.8
2014-Sep-16 02:00N 40°12' E 009°54'3030.0 1014.2 23.8
2014-Sep-16 01:00N 39°42' E 009°54'4824.0 1014.6 23.9
2014-Sep-15 23:00N 38°54' E 009°54'8327.7 1013.7 23.6
2014-Sep-15 20:00N 37°36' E 010°30'2424.0 1013.4 24.9
2014-Sep-15 19:00N 37°12' E 010°30'2424.5 1012.6 26.4
2014-Sep-15 18:00N 36°48' E 010°24'5 0.6 1012.6 27.2
2014-Sep-15 10:00N 36°48' E 010°18'1515.4 1016.5 29.6
2014-Sep-15 09:00N 37°00' E 010°30'2424.0 1020.4 27.1
2014-Sep-15 08:00N 37°24' E 010°30'2424.0 1018.2 25.8
2014-Sep-15 07:00N 37°48' E 010°30'1918.6 1017.4 24.9
2014-Sep-15 06:00N 38°06' E 010°24'2424.0 1017.8 24.1
2014-Sep-15 05:00N 38°30' E 010°24'2424.0 1015.2 23.2
2014-Sep-15 04:00N 38°54' E 010°24'2424.4 1015.3 23.4
2014-Sep-15 03:00N 39°18' E 010°18'3030.0 1015.4 23.5
2014-Sep-15 02:00N 39°48' E 010°18'2424.4 1015.4 23.2
2014-Sep-15 01:00N 40°12' E 010°12'2424.0 1015.4 23.1
2014-Sep-15 00:00N 40°36' E 010°12'2424.4 1015.6 23.0
2014-Sep-14 23:00N 41°00' E 010°06'2424.4 1015.3 22.0
2014-Sep-14 22:00N 41°24' E 010°00'2424.4 1015.5 22.3
2014-Sep-14 21:00N 41°48' E 009°54'2424.4 1015.9 22.4
2014-Sep-14 20:00N 42°12' E 009°48'3030.3 1015.5 22.4
2014-Sep-14 19:00N 42°42' E 009°42'2424.4 1015.4 22.5
2014-Sep-14 18:00N 43°06' E 009°36'2020.0 1014.7 22.2
2014-Sep-14 17:00N 43°24' E 009°24'2625.5 1014.5 22.8
2014-Sep-14 16:00N 43°48' E 009°12'31 4.5 1014.4 23.1
2014-Sep-14 09:00N 44°18' E 009°00'2625.5 1016.4 22.5
2014-Sep-14 08:00N 43°54' E 009°12'2625.5 1015.8 22.7
2014-Sep-14 07:00N 43°30' E 009°24'2625.5 1016.8 22.3
2014-Sep-14 06:00N 43°06' E 009°36'3030.3 1016.1 21.9
2014-Sep-14 05:00N 42°36' E 009°42'2424.4 1014.1 21.1
2014-Sep-14 04:00N 42°12' E 009°48'3030.3 1013.8 21.8
2014-Sep-14 03:00N 41°42' E 009°54'2424.4 1014.6 22.4
2014-Sep-14 02:00N 41°18' E 010°00'2424.0 1014.3 21.7
2014-Sep-14 01:00N 40°54' E 010°00'5427.1 1014.4 22.2
2014-Sep-13 23:00N 40°00' E 010°06'3030.0 1014.5 24.3
2014-Sep-13 22:00N 39°30' E 010°06'2424.0 1014.9 24.8
2014-Sep-13 21:00N 39°06' E 010°06'3030.0 1015.6 25.3
2014-Sep-13 20:00N 38°36' E 010°06'2424.5 1015.8 25.2
2014-Sep-13 19:00N 38°12' E 010°12'2625.8 1015.4 24.6
2014-Sep-13 18:00N 37°48' E 010°24'3030.4 1015.2 24.7
2014-Sep-13 17:00N 37°18' E 010°30'2424.5 1015.2 25.5
2014-Sep-13 16:00N 36°54' E 010°24'8 0.9 1015.1 25.7
2014-Sep-13 07:00N 36°48' E 010°18'5 4.8 1021.0 24.7
2014-Sep-13 06:00N 36°48' E 010°24'2424.5 1018.3 24.7
2014-Sep-13 05:00N 37°12' E 010°30'1918.6 1014.7 24.1
2014-Sep-13 04:00N 37°30' E 010°36'2323.0 1015.4 24.7
2014-Sep-13 03:00N 37°48' E 010°18'2424.5 1015.0 24.3
2014-Sep-13 02:00N 38°12' E 010°12'2424.5 1014.7 24.4
2014-Sep-13 01:00N 38°36' E 010°06'1818.5 1015.0 25.1
2014-Sep-13 00:00N 38°48' E 009°48'1818.0 1015.3 24.6
2014-Sep-12 23:00N 39°06' E 009°48'2424.0 1013.9 25.7
2014-Sep-12 22:00N 39°30' E 009°48'2424.4 1013.1 25.1
2014-Sep-12 21:00N 39°54' E 009°54'2424.0 1012.7 26.1
2014-Sep-12 20:00N 40°18' E 009°54'2424.4 1012.7 26.4
2014-Sep-12 19:00N 40°42' E 010°00'1918.6 1012.7 24.3
2014-Sep-12 18:00N 41°00' E 009°54'2424.0 1011.5 22.8
2014-Sep-12 17:00N 41°24' E 009°54'2424.4 1010.8 22.6
2014-Sep-12 16:00N 41°48' E 009°48'2424.0 1010.9 23.2
2014-Sep-12 15:00N 42°12' E 009°48'2424.4 1010.5 22.8
2014-Sep-12 14:00N 42°36' E 009°42'1918.5 1010.5 23.5
2014-Sep-12 13:00N 42°54' E 009°36'2424.4 1011.3 23.2
2014-Sep-12 12:00N 43°18' E 009°30'2020.0 1010.4 22.1
2014-Sep-12 11:00N 43°36' E 009°18'2625.5 1010.3 21.8
2014-Sep-12 10:00N 44°00' E 009°06'2424.4 1011.2 23.9
2014-Sep-12 09:00N 44°24' E 009°00'0 0.0 1011.3 20.6
2014-Sep-11 17:00N 44°24' E 009°00'2525.5 1008.3 22.4
2014-Sep-11 16:00N 44°00' E 009°12'2424.4 1008.9 23.1
2014-Sep-11 15:00N 43°36' E 009°18'2020.0 1009.0 23.2
2014-Sep-11 14:00N 43°18' E 009°30'2424.4 1009.0 23.2
2014-Sep-11 13:00N 42°54' E 009°36'2424.4 1009.4 23.5
2014-Sep-11 12:00N 42°30' E 009°42'2424.4 1010.3 23.3
2014-Sep-11 11:00N 42°06' E 009°48'1818.0 1015.1 23.3
2014-Sep-11 10:00N 41°48' E 009°48'2424.4 1011.8 23.9
2014-Sep-11 09:00N 41°24' E 009°54'2424.4 1008.9 23.6
2014-Sep-11 08:00N 41°00' E 010°00'2424.0 1009.4 24.6
2014-Sep-11 07:00N 40°36' E 010°00'3030.3 1012.0 24.7
2014-Sep-11 06:00N 40°06' E 009°54'2424.4 1013.2 24.8
2014-Sep-11 05:00N 39°42' E 009°48'3030.0 1010.0 24.4
2014-Sep-11 04:00N 39°12' E 009°48'2625.7 1010.6 24.5
2014-Sep-11 03:00N 38°48' E 010°00'2424.5 1010.7 24.0
2014-Sep-11 02:00N 38°24' E 010°06'2625.8 1010.7 24.0
2014-Sep-11 01:00N 38°00' E 010°18'3030.4 1010.4 23.8
2014-Sep-11 00:00N 37°30' E 010°24'2424.5 1013.3 25.2
2014-Sep-10 23:00N 37°06' E 010°30'2020.4 1013.7 24.8
2014-Sep-10 22:00N 36°48' E 010°18'0 0.0 1011.9 24.4
2014-Sep-10 15:00N 36°48' E 010°18'1312.9 999.6 25.8
2014-Sep-10 14:00N 37°00' E 010°24'1918.6 1005.7 26.5
2014-Sep-10 13:00N 37°18' E 010°30'2424.5 1024.5 27.2
2014-Sep-10 12:00N 37°42' E 010°24'2625.8 1011.7 25.8
2014-Sep-10 11:00N 38°06' E 010°12'2424.5 1019.8 26.3
2014-Sep-10 10:00N 38°30' E 010°06'2020.3 1026.1 25.6
2014-Sep-10 09:00N 38°48' E 009°54'2424.4 1012.9 24.7
2014-Sep-10 08:00N 39°12' E 009°48'2424.0 1014.3 24.9
2014-Sep-10 07:00N 39°36' E 009°48'2424.4 1014.6 24.0
2014-Sep-10 06:00N 40°00' E 009°54'1818.0 1013.7 24.1
2014-Sep-10 05:00N 40°18' E 009°54'2424.4 1012.8 23.5
2014-Sep-10 04:00N 40°42' E 010°00'4824.1 1013.0 23.1
2014-Sep-10 02:00N 41°30' E 009°54'2424.4 1013.3 22.6
2014-Sep-10 01:00N 41°54' E 009°48'2424.0 1014.4 23.2
2014-Sep-10 00:00N 42°18' E 009°48'2424.4 1014.5 23.0
2014-Sep-09 23:00N 42°42' E 009°42'1918.5 1014.9 23.3
2014-Sep-09 22:00N 43°00' E 009°36'2625.5 1014.9 23.1
2014-Sep-09 21:00N 43°24' E 009°24'2625.5 1015.1 23.3
2014-Sep-09 20:00N 43°48' E 009°12'38 5.5 1015.2 23.0
2014-Sep-09 13:00N 44°24' E 008°54'1514.8 1017.0 24.9
2014-Sep-09 12:00N 44°12' E 009°06'2424.4 1017.3 25.3
2014-Sep-09 11:00N 43°48' E 009°12'2020.0 1017.7 25.0
2014-Sep-09 10:00N 43°30' E 009°24'2625.5 1018.9 25.2
2014-Sep-09 09:00N 43°06' E 009°36'2424.4 1019.5 24.3
2014-Sep-09 08:00N 42°42' E 009°42'2424.0 1018.5 24.5
2014-Sep-09 07:00N 42°18' E 009°42'2424.4 1018.4 23.3
2014-Sep-09 06:00N 41°54' E 009°48'2424.0 1017.5 22.9
2014-Sep-09 05:00N 41°30' E 009°48'3030.3 1015.9 22.4
2014-Sep-09 04:00N 41°00' E 009°54'2424.0 1015.5 23.0
2014-Sep-09 03:00N 40°36' E 009°54'3030.0 1015.9 23.0
2014-Sep-09 02:00N 40°06' E 009°54'2424.0 1016.6 24.1
2014-Sep-09 01:00N 39°42' E 009°54'3030.4 1016.3 24.5
2014-Sep-09 00:00N 39°12' E 009°48'2625.7 1016.7 24.2
2014-Sep-08 23:00N 38°48' E 010°00'2625.8 1017.0 24.2
2014-Sep-08 22:00N 38°24' E 010°12'3030.4 1017.0 24.6
2014-Sep-08 21:00N 37°54' E 010°18'2625.8 1016.8 25.1
2014-Sep-08 20:00N 37°30' E 010°30'2424.0 1017.4 24.6
2014-Sep-08 19:00N 37°06' E 010°30'19 2.1 1017.4 24.9
2014-Sep-08 10:00N 36°48' E 010°24'1918.6 1016.7 27.4
2014-Sep-08 09:00N 37°06' E 010°30'2424.5 1019.2 26.7
2014-Sep-08 08:00N 37°30' E 010°24'2424.5 1017.2 25.3
2014-Sep-08 07:00N 37°54' E 010°18'1918.6 1015.3 24.4
2014-Sep-08 06:00N 38°12' E 010°12'2625.8 1016.3 24.4
2014-Sep-08 05:00N 38°36' E 010°00'1918.6 1014.8 23.8
2014-Sep-08 04:00N 38°54' E 009°54'2424.4 1015.1 24.0
2014-Sep-08 03:00N 39°18' E 009°48'2424.4 1015.0 24.0
2014-Sep-08 02:00N 39°42' E 009°54'2424.0 1014.8 24.1
2014-Sep-08 01:00N 40°06' E 009°54'2424.4 1014.9 24.2
2014-Sep-08 00:00N 40°30' E 010°00'1818.0 1015.1 23.7
2014-Sep-07 23:00N 40°48' E 010°00'2424.4 1015.0 24.0
2014-Sep-07 22:00N 41°12' E 009°54'2424.0 1014.6 22.9
2014-Sep-07 21:00N 41°36' E 009°54'2424.4 1014.0 23.2
2014-Sep-07 20:00N 42°00' E 009°48'2424.0 1014.8 23.2
2014-Sep-07 19:00N 42°24' E 009°48'2424.4 1014.4 23.5
2014-Sep-07 18:00N 42°48' E 009°42'1918.5 1013.0 23.4
2014-Sep-07 17:00N 43°06' E 009°36'2625.5 1012.1 23.3
2014-Sep-07 16:00N 43°30' E 009°24'2625.5 1012.2 23.5
2014-Sep-07 15:00N 43°54' E 009°12'2020.0 1012.8 24.5
2014-Sep-07 14:00N 44°12' E 009°00'0 0.0 1013.3 24.8
2014-Sep-07 08:00N 44°12' E 009°00'2625.5 1015.8 22.8
2014-Sep-07 07:00N 43°48' E 009°12'2727.3 1014.4 22.7
2014-Sep-07 06:00N 43°24' E 009°30'2424.4 1014.1 22.8
2014-Sep-07 05:00N 43°00' E 009°36'3030.3 1012.3 22.7
2014-Sep-07 04:00N 42°30' E 009°42'2424.4 1012.3 22.2
2014-Sep-07 03:00N 42°06' E 009°48'3030.3 1012.1 23.1
2014-Sep-07 02:00N 41°36' E 009°54'2424.0 1012.3 22.1
2014-Sep-07 01:00N 41°12' E 009°54'2424.4 1011.9 22.9
2014-Sep-07 00:00N 40°48' E 010°00'3030.0 1012.2 23.9
2014-Sep-06 23:00N 40°18' E 010°00'2424.4 1012.8 24.4
2014-Sep-06 22:00N 39°54' E 009°54'5427.0 1012.7 23.7
2014-Sep-06 20:00N 39°00' E 009°54'3131.4 1011.7 24.8
2014-Sep-06 19:00N 38°30' E 010°06'2424.5 1010.8 24.4
2014-Sep-06 18:00N 38°06' E 010°12'2625.8 1010.1 23.8
2014-Sep-06 17:00N 37°42' E 010°24'3030.4 1011.5 24.3
2014-Sep-06 16:00N 37°12' E 010°30'2424.5 1011.4 25.1
2014-Sep-06 15:00N 36°48' E 010°24'   1011.3 25.8
Track history (hours):
 
Tides and Currents Weather Stations Pressure Air Temp Water Temp Dewpoint Dewpoint Depression Visibility Wind Speed Wind Dir Waves Ship Positions

Callsign BAREU51 (name unknown)

Last reported at 2014-Sep-16 12:00 UTC. Time now 2014-Sep-16 19:33 UTC.
Position N 44°24' E 008°54'.

Barometer 1015.4 mb
Air temperature 23.8 ° C

Date/timePositionNaut miles runAvg speedWind from/ knotsBaromVisibWave heightAir tempDewpointWater temp
2014-Sep-16 12:00N 44°24' E 008°54'1514.8 1015.4 23.8
2014-Sep-16 11:00N 44°12' E 009°06'3131.2 1015.2 23.0
2014-Sep-16 10:00N 43°42' E 009°18'2625.5 1016.1 23.2
2014-Sep-16 09:00N 43°18' E 009°30'3030.3 1021.2 23.4
2014-Sep-16 08:00N 42°48' E 009°36'2424.4 1014.4 21.2
2014-Sep-16 07:00N 42°24' E 009°42'3030.3 1018.7 23.5
2014-Sep-16 06:00N 41°54' E 009°48'2424.4 1015.1 22.3
2014-Sep-16 05:00N 41°30' E 009°54'2424.4 1013.1 22.3
2014-Sep-16 04:00N 41°06' E 010°00'3030.0 1013.5 23.6
2014-Sep-16 03:00N 40°36' E 010°00'2424.4 1013.8 23.8
2014-Sep-16 02:00N 40°12' E 009°54'3030.0 1014.2 23.8
2014-Sep-16 01:00N 39°42' E 009°54'4824.0 1014.6 23.9
2014-Sep-15 23:00N 38°54' E 009°54'8327.7 1013.7 23.6
2014-Sep-15 20:00N 37°36' E 010°30'2424.0 1013.4 24.9
2014-Sep-15 19:00N 37°12' E 010°30'2424.5 1012.6 26.4
2014-Sep-15 18:00N 36°48' E 010°24'5 0.6 1012.6 27.2
2014-Sep-15 10:00N 36°48' E 010°18'1515.4 1016.5 29.6
2014-Sep-15 09:00N 37°00' E 010°30'2424.0 1020.4 27.1
2014-Sep-15 08:00N 37°24' E 010°30'2424.0 1018.2 25.8
2014-Sep-15 07:00N 37°48' E 010°30'1918.6 1017.4 24.9
2014-Sep-15 06:00N 38°06' E 010°24'2424.0 1017.8 24.1
2014-Sep-15 05:00N 38°30' E 010°24'2424.0 1015.2 23.2
2014-Sep-15 04:00N 38°54' E 010°24'2424.4 1015.3 23.4
2014-Sep-15 03:00N 39°18' E 010°18'3030.0 1015.4 23.5
2014-Sep-15 02:00N 39°48' E 010°18'2424.4 1015.4 23.2
2014-Sep-15 01:00N 40°12' E 010°12'2424.0 1015.4 23.1
2014-Sep-15 00:00N 40°36' E 010°12'2424.4 1015.6 23.0
2014-Sep-14 23:00N 41°00' E 010°06'2424.4 1015.3 22.0
2014-Sep-14 22:00N 41°24' E 010°00'2424.4 1015.5 22.3
2014-Sep-14 21:00N 41°48' E 009°54'2424.4 1015.9 22.4
2014-Sep-14 20:00N 42°12' E 009°48'3030.3 1015.5 22.4
2014-Sep-14 19:00N 42°42' E 009°42'2424.4 1015.4 22.5
2014-Sep-14 18:00N 43°06' E 009°36'2020.0 1014.7 22.2
2014-Sep-14 17:00N 43°24' E 009°24'2625.5 1014.5 22.8
2014-Sep-14 16:00N 43°48' E 009°12'31 4.5 1014.4 23.1
2014-Sep-14 09:00N 44°18' E 009°00'2625.5 1016.4 22.5
2014-Sep-14 08:00N 43°54' E 009°12'2625.5 1015.8 22.7
2014-Sep-14 07:00N 43°30' E 009°24'2625.5 1016.8 22.3
2014-Sep-14 06:00N 43°06' E 009°36'3030.3 1016.1 21.9
2014-Sep-14 05:00N 42°36' E 009°42'2424.4 1014.1 21.1
2014-Sep-14 04:00N 42°12' E 009°48'3030.3 1013.8 21.8
2014-Sep-14 03:00N 41°42' E 009°54'2424.4 1014.6 22.4
2014-Sep-14 02:00N 41°18' E 010°00'2424.0 1014.3 21.7
2014-Sep-14 01:00N 40°54' E 010°00'5427.1 1014.4 22.2
2014-Sep-13 23:00N 40°00' E 010°06'3030.0 1014.5 24.3
2014-Sep-13 22:00N 39°30' E 010°06'2424.0 1014.9 24.8
2014-Sep-13 21:00N 39°06' E 010°06'3030.0 1015.6 25.3
2014-Sep-13 20:00N 38°36' E 010°06'2424.5 1015.8 25.2
2014-Sep-13 19:00N 38°12' E 010°12'2625.8 1015.4 24.6
2014-Sep-13 18:00N 37°48' E 010°24'3030.4 1015.2 24.7
2014-Sep-13 17:00N 37°18' E 010°30'2424.5 1015.2 25.5
2014-Sep-13 16:00N 36°54' E 010°24'8 0.9 1015.1 25.7
2014-Sep-13 07:00N 36°48' E 010°18'5 4.8 1021.0 24.7
2014-Sep-13 06:00N 36°48' E 010°24'2424.5 1018.3 24.7
2014-Sep-13 05:00N 37°12' E 010°30'1918.6 1014.7 24.1
2014-Sep-13 04:00N 37°30' E 010°36'2323.0 1015.4 24.7
2014-Sep-13 03:00N 37°48' E 010°18'2424.5 1015.0 24.3
2014-Sep-13 02:00N 38°12' E 010°12'2424.5 1014.7 24.4
2014-Sep-13 01:00N 38°36' E 010°06'1818.5 1015.0 25.1
2014-Sep-13 00:00N 38°48' E 009°48'1818.0 1015.3 24.6
2014-Sep-12 23:00N 39°06' E 009°48'2424.0 1013.9 25.7
2014-Sep-12 22:00N 39°30' E 009°48'2424.4 1013.1 25.1
2014-Sep-12 21:00N 39°54' E 009°54'2424.0 1012.7 26.1
2014-Sep-12 20:00N 40°18' E 009°54'2424.4 1012.7 26.4
2014-Sep-12 19:00N 40°42' E 010°00'1918.6 1012.7 24.3
2014-Sep-12 18:00N 41°00' E 009°54'2424.0 1011.5 22.8
2014-Sep-12 17:00N 41°24' E 009°54'2424.4 1010.8 22.6
2014-Sep-12 16:00N 41°48' E 009°48'2424.0 1010.9 23.2
2014-Sep-12 15:00N 42°12' E 009°48'2424.4 1010.5 22.8
2014-Sep-12 14:00N 42°36' E 009°42'1918.5 1010.5 23.5
2014-Sep-12 13:00N 42°54' E 009°36'2424.4 1011.3 23.2
2014-Sep-12 12:00N 43°18' E 009°30'2020.0 1010.4 22.1
2014-Sep-12 11:00N 43°36' E 009°18'2625.5 1010.3 21.8
2014-Sep-12 10:00N 44°00' E 009°06'2424.4 1011.2 23.9
2014-Sep-12 09:00N 44°24' E 009°00'0 0.0 1011.3 20.6
2014-Sep-11 17:00N 44°24' E 009°00'2525.5 1008.3 22.4
2014-Sep-11 16:00N 44°00' E 009°12'2424.4 1008.9 23.1
2014-Sep-11 15:00N 43°36' E 009°18'2020.0 1009.0 23.2
2014-Sep-11 14:00N 43°18' E 009°30'2424.4 1009.0 23.2
2014-Sep-11 13:00N 42°54' E 009°36'2424.4 1009.4 23.5
2014-Sep-11 12:00N 42°30' E 009°42'2424.4 1010.3 23.3
2014-Sep-11 11:00N 42°06' E 009°48'1818.0 1015.1 23.3
2014-Sep-11 10:00N 41°48' E 009°48'2424.4 1011.8 23.9
2014-Sep-11 09:00N 41°24' E 009°54'2424.4 1008.9 23.6
2014-Sep-11 08:00N 41°00' E 010°00'2424.0 1009.4 24.6
2014-Sep-11 07:00N 40°36' E 010°00'3030.3 1012.0 24.7
2014-Sep-11 06:00N 40°06' E 009°54'2424.4 1013.2 24.8
2014-Sep-11 05:00N 39°42' E 009°48'3030.0 1010.0 24.4
2014-Sep-11 04:00N 39°12' E 009°48'2625.7 1010.6 24.5
2014-Sep-11 03:00N 38°48' E 010°00'2424.5 1010.7 24.0
2014-Sep-11 02:00N 38°24' E 010°06'2625.8 1010.7 24.0
2014-Sep-11 01:00N 38°00' E 010°18'3030.4 1010.4 23.8
2014-Sep-11 00:00N 37°30' E 010°24'2424.5 1013.3 25.2
2014-Sep-10 23:00N 37°06' E 010°30'2020.4 1013.7 24.8
2014-Sep-10 22:00N 36°48' E 010°18'0 0.0 1011.9 24.4
2014-Sep-10 15:00N 36°48' E 010°18'1312.9 999.6 25.8
2014-Sep-10 14:00N 37°00' E 010°24'1918.6 1005.7 26.5
2014-Sep-10 13:00N 37°18' E 010°30'2424.5 1024.5 27.2
2014-Sep-10 12:00N 37°42' E 010°24'2625.8 1011.7 25.8
2014-Sep-10 11:00N 38°06' E 010°12'2424.5 1019.8 26.3
2014-Sep-10 10:00N 38°30' E 010°06'2020.3 1026.1 25.6
2014-Sep-10 09:00N 38°48' E 009°54'2424.4 1012.9 24.7
2014-Sep-10 08:00N 39°12' E 009°48'2424.0 1014.3 24.9
2014-Sep-10 07:00N 39°36' E 009°48'2424.4 1014.6 24.0
2014-Sep-10 06:00N 40°00' E 009°54'1818.0 1013.7 24.1
2014-Sep-10 05:00N 40°18' E 009°54'2424.4 1012.8 23.5
2014-Sep-10 04:00N 40°42' E 010°00'4824.1 1013.0 23.1
2014-Sep-10 02:00N 41°30' E 009°54'2424.4 1013.3 22.6
2014-Sep-10 01:00N 41°54' E 009°48'2424.0 1014.4 23.2
2014-Sep-10 00:00N 42°18' E 009°48'2424.4 1014.5 23.0
2014-Sep-09 23:00N 42°42' E 009°42'1918.5 1014.9 23.3
2014-Sep-09 22:00N 43°00' E 009°36'2625.5 1014.9 23.1
2014-Sep-09 21:00N 43°24' E 009°24'2625.5 1015.1 23.3
2014-Sep-09 20:00N 43°48' E 009°12'38 5.5 1015.2 23.0
2014-Sep-09 13:00N 44°24' E 008°54'1514.8 1017.0 24.9
2014-Sep-09 12:00N 44°12' E 009°06'2424.4 1017.3 25.3
2014-Sep-09 11:00N 43°48' E 009°12'2020.0 1017.7 25.0
2014-Sep-09 10:00N 43°30' E 009°24'2625.5 1018.9 25.2
2014-Sep-09 09:00N 43°06' E 009°36'2424.4 1019.5 24.3
2014-Sep-09 08:00N 42°42' E 009°42'2424.0 1018.5 24.5
2014-Sep-09 07:00N 42°18' E 009°42'2424.4 1018.4 23.3
2014-Sep-09 06:00N 41°54' E 009°48'2424.0 1017.5 22.9
2014-Sep-09 05:00N 41°30' E 009°48'3030.3 1015.9 22.4
2014-Sep-09 04:00N 41°00' E 009°54'2424.0 1015.5 23.0
2014-Sep-09 03:00N 40°36' E 009°54'3030.0 1015.9 23.0
2014-Sep-09 02:00N 40°06' E 009°54'2424.0 1016.6 24.1
2014-Sep-09 01:00N 39°42' E 009°54'3030.4 1016.3 24.5
2014-Sep-09 00:00N 39°12' E 009°48'2625.7 1016.7 24.2
2014-Sep-08 23:00N 38°48' E 010°00'2625.8 1017.0 24.2
2014-Sep-08 22:00N 38°24' E 010°12'3030.4 1017.0 24.6
2014-Sep-08 21:00N 37°54' E 010°18'2625.8 1016.8 25.1
2014-Sep-08 20:00N 37°30' E 010°30'2424.0 1017.4 24.6
2014-Sep-08 19:00N 37°06' E 010°30'19 2.1 1017.4 24.9
2014-Sep-08 10:00N 36°48' E 010°24'1918.6 1016.7 27.4
2014-Sep-08 09:00N 37°06' E 010°30'2424.5 1019.2 26.7
2014-Sep-08 08:00N 37°30' E 010°24'2424.5 1017.2 25.3
2014-Sep-08 07:00N 37°54' E 010°18'1918.6 1015.3 24.4
2014-Sep-08 06:00N 38°12' E 010°12'2625.8 1016.3 24.4
2014-Sep-08 05:00N 38°36' E 010°00'1918.6 1014.8 23.8
2014-Sep-08 04:00N 38°54' E 009°54'2424.4 1015.1 24.0
2014-Sep-08 03:00N 39°18' E 009°48'2424.4 1015.0 24.0
2014-Sep-08 02:00N 39°42' E 009°54'2424.0 1014.8 24.1
2014-Sep-08 01:00N 40°06' E 009°54'2424.4 1014.9 24.2
2014-Sep-08 00:00N 40°30' E 010°00'1818.0 1015.1 23.7
2014-Sep-07 23:00N 40°48' E 010°00'2424.4 1015.0 24.0
2014-Sep-07 22:00N 41°12' E 009°54'2424.0 1014.6 22.9
2014-Sep-07 21:00N 41°36' E 009°54'2424.4 1014.0 23.2
2014-Sep-07 20:00N 42°00' E 009°48'2424.0 1014.8 23.2
2014-Sep-07 19:00N 42°24' E 009°48'2424.4 1014.4 23.5
2014-Sep-07 18:00N 42°48' E 009°42'1918.5 1013.0 23.4
2014-Sep-07 17:00N 43°06' E 009°36'2625.5 1012.1 23.3
2014-Sep-07 16:00N 43°30' E 009°24'2625.5 1012.2 23.5
2014-Sep-07 15:00N 43°54' E 009°12'2020.0 1012.8 24.5
2014-Sep-07 14:00N 44°12' E 009°00'0 0.0 1013.3 24.8
2014-Sep-07 08:00N 44°12' E 009°00'2625.5 1015.8 22.8
2014-Sep-07 07:00N 43°48' E 009°12'2727.3 1014.4 22.7
2014-Sep-07 06:00N 43°24' E 009°30'2424.4 1014.1 22.8
2014-Sep-07 05:00N 43°00' E 009°36'3030.3 1012.3 22.7
2014-Sep-07 04:00N 42°30' E 009°42'2424.4 1012.3 22.2
2014-Sep-07 03:00N 42°06' E 009°48'3030.3 1012.1 23.1
2014-Sep-07 02:00N 41°36' E 009°54'2424.0 1012.3 22.1
2014-Sep-07 01:00N 41°12' E 009°54'2424.4 1011.9 22.9
2014-Sep-07 00:00N 40°48' E 010°00'3030.0 1012.2 23.9
2014-Sep-06 23:00N 40°18' E 010°00'2424.4 1012.8 24.4
2014-Sep-06 22:00N 39°54' E 009°54'5427.0 1012.7 23.7
2014-Sep-06 20:00N 39°00' E 009°54'3131.4 1011.7 24.8
2014-Sep-06 19:00N 38°30' E 010°06'2424.5 1010.8 24.4
2014-Sep-06 18:00N 38°06' E 010°12'2625.8 1010.1 23.8
2014-Sep-06 17:00N 37°42' E 010°24'3030.4 1011.5 24.3
2014-Sep-06 16:00N 37°12' E 010°30'2424.5 1011.4 25.1
2014-Sep-06 15:00N 36°48' E 010°24'   1011.3 25.8

Dump ship's entire track history